Time;durP1;ratioP1;P1;durP2;ratioP2;P2;SDS_P1;SDS_P2;PMS_P1;PMS_P2;Temp;Humidity;BMP_temperature;BMP_pressure;BME280_temperature;BME280_humidity;BME280_pressure;Samples;Min_cycle;Max_cycle;Signal;HPM_P1;HPM_P2
2023/04/22 04:00:34;;;;;;;2.07;1.23;;;14.10;73.00;;;;;;6082877;23;21250;31
2023/04/22 04:03:02;;;;;;;2.10;1.30;;;14.10;73.00;;;;;;4935552;29;20883;-74
2023/04/22 04:05:29;;;;;;;1.80;1.10;;;14.10;73.20;;;;;;4937208;29;20503;-73
2023/04/22 04:07:55;;;;;;;2.00;1.10;;;14.10;73.10;;;;;;4936897;29;20480;-74
2023/04/22 04:10:22;;;;;;;2.30;1.10;;;14.10;72.80;;;;;;4936878;29;20822;-74
2023/04/22 04:12:49;;;;;;;1.97;1.23;;;14.00;72.80;;;;;;4955871;28;20948;-74
2023/04/22 04:15:18;;;;;;;2.20;1.30;;;14.00;72.60;;;;;;4956322;28;20944;-74
2023/04/22 04:17:44;;;;;;;2.30;1.27;;;14.00;72.90;;;;;;4955493;28;20865;-74
2023/04/22 04:20:13;;;;;;;2.20;1.40;;;14.00;72.80;;;;;;4955589;28;20948;-74
2023/04/22 04:22:40;;;;;;;2.00;1.30;;;14.00;72.80;;;;;;4955991;28;20568;-74
2023/04/22 04:25:07;;;;;;;1.87;1.20;;;13.90;72.70;;;;;;4955901;28;20451;-74
2023/04/22 04:27:34;;;;;;;1.90;1.23;;;14.00;72.50;;;;;;4955882;28;20454;-74
2023/04/22 04:30:03;;;;;;;1.93;1.30;;;14.00;72.60;;;;;;4956003;28;20844;-74
2023/04/22 04:32:33;;;;;;;2.07;1.40;;;13.90;72.70;;;;;;4955450;28;20985;-74
2023/04/22 04:35:00;;;;;;;2.00;1.10;;;14.00;72.40;;;;;;4955849;28;20796;-73
2023/04/22 04:37:28;;;;;;;2.20;1.40;;;13.90;72.60;;;;;;4955190;28;20491;-73
2023/04/22 04:39:58;;;;;;;2.30;1.47;;;14.00;72.40;;;;;;4955483;28;20560;-75
2023/04/22 04:42:24;;;;;;;2.10;1.33;;;14.00;72.40;;;;;;4955464;28;20475;-74
2023/04/22 04:44:52;;;;;;;3.00;1.47;;;14.00;72.40;;;;;;4955430;28;20451;-74
2023/04/22 04:47:19;;;;;;;1.90;1.30;;;14.10;72.70;;;;;;4955608;28;20452;-73
2023/04/22 04:49:46;;;;;;;2.70;1.30;;;14.10;72.80;;;;;;4955483;28;20455;-74
2023/04/22 04:52:12;;;;;;;2.70;1.83;;;14.10;72.60;;;;;;4955284;28;20482;-74
2023/04/22 04:54:40;;;;;;;2.10;1.57;;;14.10;72.20;;;;;;4955453;28;20498;-74
2023/04/22 04:57:08;;;;;;;1.90;1.37;;;14.10;72.10;;;;;;4954925;28;20944;-74
2023/04/22 04:59:35;;;;;;;2.30;1.70;;;14.20;72.30;;;;;;4955427;28;20487;-74
2023/04/22 05:02:02;;;;;;;3.20;1.43;;;14.20;72.20;;;;;;4954738;28;20999;-73
2023/04/22 05:04:28;;;;;;;2.20;1.40;;;14.20;72.00;;;;;;4954904;28;20932;-74
2023/04/22 05:06:55;;;;;;;2.40;1.23;;;14.20;71.30;;;;;;4954835;28;20937;-75
2023/04/22 05:09:22;;;;;;;1.80;1.10;;;14.20;71.00;;;;;;4955235;28;20471;-75
2023/04/22 05:11:50;;;;;;;2.13;1.57;;;13.90;71.20;;;;;;4955087;28;20503;-75
2023/04/22 05:14:16;;;;;;;2.37;1.20;;;13.60;72.30;;;;;;4955441;28;20584;-74
2023/04/22 05:16:43;;;;;;;1.90;1.43;;;13.50;73.00;;;;;;4955127;28;20447;-75
2023/04/22 05:19:10;;;;;;;1.80;1.20;;;13.30;73.60;;;;;;4955142;28;20491;-75
2023/04/22 05:21:36;;;;;;;2.27;1.57;;;13.20;74.10;;;;;;4955042;28;20578;-75
2023/04/22 05:24:03;;;;;;;2.07;1.27;;;13.10;74.80;;;;;;4954948;28;20454;-74
2023/04/22 05:26:30;;;;;;;1.83;1.13;;;13.40;74.30;;;;;;4954527;28;20885;-74
2023/04/22 05:28:58;;;;;;;1.90;1.20;;;13.30;74.40;;;;;;4954837;28;20498;-74
2023/04/22 05:31:25;;;;;;;2.10;1.30;;;13.50;73.90;;;;;;4954907;28;20474;-74
2023/04/22 05:33:51;;;;;;;2.10;1.30;;;13.50;73.90;;;;;;4954665;28;20833;-75
2023/04/22 05:36:18;;;;;;;1.90;1.30;;;13.60;74.00;;;;;;4954728;28;20510;-75
2023/04/22 05:38:45;;;;;;;2.03;1.20;;;13.70;73.90;;;;;;4961022;28;20577;-74
2023/04/22 05:41:11;;;;;;;2.27;1.30;;;13.90;74.20;;;;;;4961142;28;20548;-75
2023/04/22 05:43:38;;;;;;;2.70;1.27;;;14.00;74.00;;;;;;4960824;28;20836;-74
2023/04/22 05:46:06;;;;;;;2.00;1.40;;;14.00;73.00;;;;;;4960921;28;20960;-75
2023/04/22 05:48:33;;;;;;;2.00;1.30;;;13.90;73.20;;;;;;4961746;28;20447;-74
2023/04/22 05:50:59;;;;;;;2.60;1.30;;;14.00;73.10;;;;;;4961061;28;20474;-74
2023/04/22 05:53:26;;;;;;;2.27;1.40;;;14.00;73.90;;;;;;4961620;28;20515;-74
2023/04/22 05:55:53;;;;;;;2.20;1.67;;;14.10;74.60;;;;;;4960903;28;20935;-75
2023/04/22 05:58:20;;;;;;;3.37;1.57;;;14.10;73.10;;;;;;4961113;28;20483;-74
2023/04/22 06:00:47;;;;;;;2.07;1.53;;;14.20;73.20;;;;;;4963614;28;20498;-74
2023/04/22 06:03:15;;;;;;;2.07;1.40;;;14.30;73.20;;;;;;4971022;28;20435;-74
2023/04/22 06:05:43;;;;;;;3.00;1.67;;;14.30;73.10;;;;;;4978395;28;20458;-77
2023/04/22 06:08:09;;;;;;;2.07;1.63;;;14.30;73.60;;;;;;4979685;28;20435;-75
2023/04/22 06:10:36;;;;;;;2.10;1.80;;;14.50;73.30;;;;;;4962858;28;20513;-76
2023/04/22 06:13:03;;;;;;;2.00;1.53;;;14.50;72.90;;;;;;4961313;28;20509;-76
2023/04/22 06:15:29;;;;;;;2.40;1.50;;;14.70;72.90;;;;;;4960905;28;20944;-76
2023/04/22 06:17:56;;;;;;;2.17;1.70;;;14.80;72.80;;;;;;4961004;28;20451;-76
2023/04/22 06:20:24;;;;;;;2.43;1.63;;;14.80;73.00;;;;;;4961206;28;20447;-77
2023/04/22 06:22:51;;;;;;;2.43;1.50;;;14.80;72.30;;;;;;4961077;28;20825;-76
2023/04/22 06:25:18;;;;;;;2.13;1.40;;;14.80;73.20;;;;;;4960973;28;20522;-76
2023/04/22 06:27:44;;;;;;;2.87;2.27;;;15.00;72.70;;;;;;4961088;28;20567;-76
2023/04/22 06:30:11;;;;;;;2.73;1.57;;;15.20;72.60;;;;;;4961054;28;20451;-76
2023/04/22 06:32:38;;;;;;;2.87;1.57;;;15.50;71.10;;;;;;4960802;28;20479;-76
2023/04/22 06:35:06;;;;;;;2.10;1.60;;;15.60;71.50;;;;;;4961103;28;20510;-77
2023/04/22 06:37:34;;;;;;;2.13;1.50;;;15.60;71.50;;;;;;4960860;28;20451;-76
2023/04/22 06:40:00;;;;;;;2.37;1.73;;;15.50;71.40;;;;;;4960808;28;20486;-77
2023/04/22 06:42:27;;;;;;;2.07;1.63;;;15.40;72.80;;;;;;4960274;28;20518;-76
2023/04/22 06:44:54;;;;;;;1.97;1.47;;;15.40;71.70;;;;;;4960749;28;20451;-76
2023/04/22 06:47:20;;;;;;;2.20;1.77;;;15.20;71.80;;;;;;4960757;28;20480;-76
2023/04/22 06:49:49;;;;;;;1.80;1.10;;;15.20;73.10;;;;;;4956883;28;20510;-77
2023/04/22 06:52:15;;;;;;;2.03;1.40;;;15.30;72.70;;;;;;4957699;28;20562;-75
2023/04/22 06:54:43;;;;;;;2.10;1.30;;;15.30;72.80;;;;;;4957953;28;20451;-77
2023/04/22 06:57:10;;;;;;;2.00;1.47;;;15.20;72.40;;;;;;4957384;28;21028;-75
2023/04/22 06:59:37;;;;;;;1.90;1.30;;;15.20;72.50;;;;;;4957784;28;20541;-77
2023/04/22 07:02:04;;;;;;;2.47;1.80;;;15.20;72.40;;;;;;4957102;28;20489;-76
2023/04/22 07:04:31;;;;;;;2.00;1.30;;;15.20;72.60;;;;;;4957531;28;20546;-77
2023/04/22 07:06:58;;;;;;;1.93;1.40;;;15.40;72.70;;;;;;4957670;28;20499;-77
2023/04/22 07:09:24;;;;;;;2.40;1.60;;;15.50;73.30;;;;;;4957223;28;20933;-77
2023/04/22 07:11:52;;;;;;;2.00;1.40;;;15.60;72.50;;;;;;4957164;28;20895;-78
2023/04/22 07:14:19;;;;;;;2.10;1.30;;;15.80;73.10;;;;;;4957380;28;20455;-75
2023/04/22 07:16:46;;;;;;;2.13;1.60;;;15.90;72.30;;;;;;4957299;28;20451;-75
2023/04/22 07:19:13;;;;;;;4.10;1.60;;;16.00;72.60;;;;;;4957012;28;21004;-74
2023/04/22 07:21:40;;;;;;;2.00;1.30;;;16.30;72.10;;;;;;4956963;28;20476;-77
2023/04/22 07:24:10;;;;;;;2.10;1.60;;;16.30;71.20;;;;;;4957471;28;20514;-78
2023/04/22 07:26:37;;;;;;;1.90;1.40;;;16.20;71.80;;;;;;4957355;28;20435;-75
2023/04/22 07:29:05;;;;;;;2.17;1.40;;;16.40;70.60;;;;;;4957223;28;20818;-74
2023/04/22 07:31:32;;;;;;;2.87;1.90;;;16.20;71.20;;;;;;4957002;28;20475;-76
2023/04/22 07:33:59;;;;;;;2.73;1.60;;;16.20;72.30;;;;;;4957041;28;20455;-75
2023/04/22 07:36:26;;;;;;;2.20;1.70;;;16.30;71.10;;;;;;4957009;28;20455;-74
2023/04/22 07:38:53;;;;;;;2.27;1.47;;;16.20;71.60;;;;;;4956964;28;20479;-73
2023/04/22 07:41:19;;;;;;;2.43;1.47;;;16.40;71.30;;;;;;4957161;28;20471;-75
2023/04/22 07:43:46;;;;;;;2.47;1.57;;;16.30;71.80;;;;;;4956981;28;20570;-75
2023/04/22 07:46:14;;;;;;;2.30;1.70;;;16.50;73.50;;;;;;4956899;28;20511;-71
2023/04/22 07:48:41;;;;;;;2.90;1.87;;;16.60;73.50;;;;;;4956738;28;20517;-72
2023/04/22 07:51:07;;;;;;;2.30;1.40;;;16.90;72.70;;;;;;4956709;28;20467;-71
2023/04/22 07:53:34;;;;;;;1.93;1.37;;;16.80;71.80;;;;;;4956930;28;20456;-72
2023/04/22 07:56:01;;;;;;;2.10;1.30;;;17.10;71.30;;;;;;4956411;28;20968;-72
2023/04/22 07:58:28;;;;;;;2.10;1.40;;;17.30;70.60;;;;;;4956518;28;20538;-71
2023/04/22 08:00:55;;;;;;;2.10;1.60;;;17.30;69.20;;;;;;4955982;28;20491;-71
2023/04/22 08:03:23;;;;;;;2.10;1.30;;;17.20;70.50;;;;;;4956705;28;20440;-74
2023/04/22 08:05:49;;;;;;;1.80;1.10;;;17.10;69.10;;;;;;4956538;28;20522;-74
2023/04/22 08:08:16;;;;;;;1.70;1.00;;;16.80;69.70;;;;;;4956433;28;20454;-75
2023/04/22 08:10:43;;;;;;;2.03;1.37;;;16.60;68.60;;;;;;4956408;28;20538;-76
2023/04/22 08:13:10;;;;;;;2.70;1.40;;;16.40;68.80;;;;;;4956391;28;20455;-76
2023/04/22 08:15:36;;;;;;;3.40;1.50;;;16.50;69.20;;;;;;4956379;28;20478;-74
2023/04/22 08:18:03;;;;;;;3.30;1.50;;;16.50;70.80;;;;;;4956262;28;20498;-76
2023/04/22 08:20:31;;;;;;;2.33;1.50;;;16.50;69.50;;;;;;4955996;28;20538;-76
2023/04/22 08:22:59;;;;;;;2.47;1.40;;;16.60;69.10;;;;;;4956233;28;20502;-72
2023/04/22 08:25:26;;;;;;;1.83;1.20;;;16.70;70.50;;;;;;4956066;28;20455;-74
2023/04/22 08:27:52;;;;;;;2.20;1.50;;;16.60;68.20;;;;;;4956197;28;20465;-73
2023/04/22 08:30:19;;;;;;;2.47;1.33;;;16.50;70.90;;;;;;4956204;28;20443;-74
2023/04/22 08:32:46;;;;;;;2.27;1.40;;;16.70;68.90;;;;;;4956072;28;20451;-74
2023/04/22 08:35:13;;;;;;;1.83;1.20;;;16.80;69.50;;;;;;4956292;28;20447;-75
2023/04/22 08:37:41;;;;;;;2.10;1.40;;;17.10;70.20;;;;;;4956206;28;20522;-74
2023/04/22 08:40:09;;;;;;;1.73;1.00;;;17.40;68.60;;;;;;4955974;28;20832;-74
2023/04/22 08:42:36;;;;;;;2.13;1.40;;;17.70;66.10;;;;;;4955800;28;20471;-74
2023/04/22 08:45:03;;;;;;;1.80;1.10;;;17.80;66.60;;;;;;4956092;28;20451;-74
2023/04/22 08:47:32;;;;;;;2.00;1.40;;;18.00;65.50;;;;;;4955954;28;20502;-73
2023/04/22 08:50:02;;;;;;;2.47;1.40;;;18.10;64.60;;;;;;4955866;28;20534;-74
2023/04/22 08:52:30;;;;;;;1.90;1.23;;;18.30;64.90;;;;;;4955669;28;20558;-75
2023/04/22 08:54:58;;;;;;;2.10;1.50;;;18.40;64.50;;;;;;4955904;28;20459;-74
2023/04/22 08:57:25;;;;;;;1.83;1.10;;;18.50;63.60;;;;;;4955757;28;20451;-74
2023/04/22 08:59:54;;;;;;;1.90;1.40;;;18.60;66.00;;;;;;4955098;28;20992;-74
2023/04/22 09:02:23;;;;;;;1.93;1.23;;;18.60;65.80;;;;;;4955060;28;20487;-74
2023/04/22 09:04:52;;;;;;;2.00;1.23;;;18.80;65.00;;;;;;4955548;28;20455;-75
2023/04/22 09:07:22;;;;;;;4.27;3.87;;;18.80;63.60;;;;;;4956429;28;20462;-73
2023/04/22 09:09:49;;;;;;;2.20;1.53;;;19.00;64.60;;;;;;4955466;28;20435;-74
2023/04/22 09:12:17;;;;;;;2.87;1.97;;;19.20;65.20;;;;;;4954659;28;20999;-72
2023/04/22 09:14:44;;;;;;;1.80;1.13;;;19.40;66.20;;;;;;4955243;28;20949;-72
2023/04/22 09:17:11;;;;;;;2.10;1.20;;;19.50;62.40;;;;;;4955479;28;20531;-73
2023/04/22 09:19:38;;;;;;;1.80;1.10;;;19.30;64.00;;;;;;4955203;28;20482;-72
2023/04/22 09:22:04;;;;;;;2.03;1.17;;;19.00;64.30;;;;;;4955286;28;20471;-72
2023/04/22 09:24:31;;;;;;;1.90;1.20;;;19.00;64.30;;;;;;4955341;28;20827;-73
2023/04/22 09:27:01;;;;;;;2.00;1.20;;;18.90;65.00;;;;;;4955300;28;20524;-73
2023/04/22 09:29:31;;;;;;;2.30;1.33;;;19.00;65.10;;;;;;4955225;28;20455;-73
2023/04/22 09:31:57;;;;;;;1.70;0.97;;;19.30;64.30;;;;;;4955097;28;20471;-73
2023/04/22 09:34:24;;;;;;;1.80;1.00;;;19.30;62.70;;;;;;4955186;28;20459;-73
2023/04/22 09:36:51;;;;;;;1.80;1.10;;;19.30;63.60;;;;;;4954831;28;20844;-73
2023/04/22 09:39:18;;;;;;;4.13;1.20;;;19.70;63.50;;;;;;4955110;28;20479;-72
2023/04/22 09:41:44;;;;;;;2.73;1.00;;;20.10;61.30;;;;;;4955043;28;20883;-73
2023/04/22 09:44:15;;;;;;;1.60;0.80;;;20.20;57.90;;;;;;4955111;28;20447;-73
2023/04/22 09:46:44;;;;;;;1.80;1.03;;;20.40;57.70;;;;;;4954787;28;20859;-73
2023/04/22 09:49:11;;;;;;;2.50;1.03;;;20.60;57.40;;;;;;4955009;28;20447;-74
2023/04/22 09:51:41;;;;;;;1.77;1.00;;;20.90;56.80;;;;;;4954871;28;20483;-74
2023/04/22 09:54:09;;;;;;;2.23;1.20;;;21.00;56.50;;;;;;4955079;28;20451;-75
2023/04/22 09:56:44;;;;;;;2.03;1.10;;;21.10;54.40;;;;;;4955025;28;20813;-75
2023/04/22 09:59:11;;;;;;;1.60;0.90;;;21.10;55.30;;;;;;4955150;28;20492;-76
2023/04/22 10:01:39;;;;;;;1.70;0.90;;;21.10;54.70;;;;;;4954620;28;20498;-75
2023/04/22 10:04:08;;;;;;;1.80;1.00;;;21.20;54.70;;;;;;4954862;28;20455;-76
2023/04/22 10:06:35;;;;;;;1.90;1.03;;;21.20;54.30;;;;;;4954925;28;20455;-77
2023/04/22 10:09:03;;;;;;;2.10;1.10;;;21.20;56.20;;;;;;4954860;28;20451;-77
2023/04/22 10:11:31;;;;;;;1.70;1.00;;;21.20;56.90;;;;;;4954772;28;20478;-76
2023/04/22 10:13:59;;;;;;;1.70;0.93;;;21.10;56.60;;;;;;4954842;28;20481;-75
2023/04/22 10:16:28;;;;;;;1.90;1.10;;;21.20;57.10;;;;;;4955422;28;20505;-76
2023/04/22 10:18:56;;;;;;;2.03;0.97;;;21.40;55.00;;;;;;4954664;28;20455;-77
2023/04/22 10:21:25;;;;;;;2.73;0.90;;;21.70;54.90;;;;;;4954727;28;20910;-76
2023/04/22 10:23:52;;;;;;;1.60;0.90;;;21.90;55.00;;;;;;4956713;28;20446;-77
2023/04/22 10:26:39;;;;;;;1.70;1.00;;;22.00;52.80;;;;;;4958150;28;20937;-77
2023/04/22 10:29:06;;;;;;;1.70;0.83;;;22.40;52.10;;;;;;4958369;28;20501;-77
2023/04/22 10:31:33;;;;;;;1.67;0.90;;;22.50;51.00;;;;;;4958204;28;20475;-77
2023/04/22 10:34:10;;;;;;;1.90;1.03;;;22.50;53.10;;;;;;4958286;28;20455;-78
2023/04/22 10:36:52;;;;;;;1.63;0.70;;;22.60;51.50;;;;;;4958263;28;20501;-77
2023/04/22 10:39:20;;;;;;;1.50;0.70;;;22.90;45.60;;;;;;4958001;28;20490;-78
2023/04/22 10:41:52;;;;;;;1.60;0.80;;;22.80;42.80;;;;;;4957997;28;20561;-77
2023/04/22 10:44:20;;;;;;;2.77;0.93;;;22.80;44.50;;;;;;4958211;28;20435;-77
2023/04/22 10:46:58;;;;;;;1.80;0.80;;;22.80;42.80;;;;;;4958222;28;20820;-76
2023/04/22 10:49:26;;;;;;;2.63;1.00;;;22.80;44.30;;;;;;4957965;28;20446;-77
2023/04/22 10:51:57;;;;;;;1.70;0.90;;;23.00;42.80;;;;;;4957775;28;20459;-77
2023/04/22 10:54:58;;;;;;;1.93;1.00;;;22.80;43.20;;;;;;4957772;28;20439;-77
2023/04/22 10:57:35;;;;;;;1.77;0.93;;;22.80;43.40;;;;;;4957723;28;20478;-77
2023/04/22 11:00:15;;;;;;;5.83;1.13;;;23.00;43.90;;;;;;4957552;28;20515;-78
2023/04/22 11:02:44;;;;;;;4.63;1.20;;;23.00;43.60;;;;;;4957368;28;20483;-77
2023/04/22 11:05:22;;;;;;;1.83;0.80;;;22.80;43.00;;;;;;4957591;28;20651;-77
2023/04/22 11:07:53;;;;;;;2.17;0.97;;;22.80;43.90;;;;;;4957511;28;20454;-77
2023/04/22 11:10:36;;;;;;;2.17;1.10;;;23.00;45.90;;;;;;4958608;28;20516;-79
2023/04/22 11:13:05;;;;;;;2.40;1.10;;;23.20;44.00;;;;;;4959939;28;20431;-80
2023/04/22 11:15:32;;;;;;;1.73;0.90;;;23.40;44.40;;;;;;4962157;28;20621;-80
2023/04/22 11:17:59;;;;;;;1.67;0.80;;;23.30;44.00;;;;;;4960036;28;20454;-77
2023/04/22 11:20:26;;;;;;;2.00;1.00;;;23.20;43.30;;;;;;4957748;28;21008;-78
2023/04/22 11:22:55;;;;;;;1.80;1.00;;;23.20;44.10;;;;;;4958263;28;20802;-76
2023/04/22 11:25:23;;;;;;;1.77;0.97;;;23.10;44.20;;;;;;4958738;28;20952;-78
2023/04/22 11:27:50;;;;;;;1.77;0.90;;;23.10;42.80;;;;;;4959775;28;20493;-78
2023/04/22 11:30:19;;;;;;;1.80;0.90;;;23.10;42.90;;;;;;4956846;28;20451;-77
2023/04/22 11:32:48;;;;;;;3.20;1.30;;;22.90;42.70;;;;;;4957424;28;20479;-78
2023/04/22 11:35:17;;;;;;;1.80;1.20;;;22.80;43.80;;;;;;4956417;28;20541;-77
2023/04/22 11:37:45;;;;;;;2.33;1.00;;;23.10;42.80;;;;;;4956942;28;20431;-76
2023/04/22 11:40:15;;;;;;;2.03;1.00;;;23.30;43.40;;;;;;4956915;28;20498;-76
2023/04/22 11:42:42;;;;;;;2.30;0.93;;;23.30;43.80;;;;;;4957164;28;20839;-76
2023/04/22 11:45:10;;;;;;;2.23;0.90;;;23.40;44.60;;;;;;4957063;28;20525;-77
2023/04/22 11:47:37;;;;;;;1.70;1.00;;;23.70;43.90;;;;;;4958712;28;20450;-77
2023/04/22 11:50:08;;;;;;;1.70;0.90;;;23.90;44.40;;;;;;4957483;28;20530;-77
2023/04/22 11:52:46;;;;;;;2.20;1.00;;;24.00;45.40;;;;;;4958323;28;20506;-77
2023/04/22 11:55:15;;;;;;;2.10;1.00;;;23.80;44.60;;;;;;4958195;28;21039;-77
2023/04/22 11:57:44;;;;;;;2.10;1.03;;;23.60;46.40;;;;;;4958879;28;20941;-76
2023/04/22 12:00:16;;;;;;;2.20;1.10;;;23.60;44.70;;;;;;4956750;28;20515;-77
2023/04/22 12:02:44;;;;;;;1.90;1.10;;;23.40;46.00;;;;;;4956285;28;20489;-77
2023/04/22 12:05:12;;;;;;;2.33;1.10;;;23.70;45.20;;;;;;4956257;28;20819;-77
2023/04/22 12:07:39;;;;;;;1.90;1.20;;;23.50;45.40;;;;;;4956514;28;20455;-77
2023/04/22 12:10:07;;;;;;;1.90;1.23;;;23.40;44.90;;;;;;4957280;28;20458;-78
2023/04/22 12:12:38;;;;;;;3.50;1.10;;;23.30;45.30;;;;;;4957444;28;20551;-79
2023/04/22 12:15:10;;;;;;;1.80;1.27;;;23.40;46.50;;;;;;4956509;28;20436;-78
2023/04/22 12:17:37;;;;;;;1.90;1.10;;;23.60;45.10;;;;;;4956295;28;20522;-76
2023/04/22 12:20:05;;;;;;;2.00;1.10;;;23.70;46.10;;;;;;4955914;28;20538;-75
2023/04/22 12:22:33;;;;;;;2.17;1.00;;;24.10;45.30;;;;;;4956427;28;21055;-75
2023/04/22 12:25:00;;;;;;;3.70;1.33;;;24.20;44.70;;;;;;4955967;28;20542;-75
2023/04/22 12:27:27;;;;;;;1.70;1.00;;;24.30;44.60;;;;;;4955723;28;20459;-75
2023/04/22 12:29:56;;;;;;;1.70;1.10;;;24.40;44.60;;;;;;4955655;28;21039;-76
2023/04/22 12:32:26;;;;;;;2.60;1.50;;;24.00;44.50;;;;;;4955814;28;20546;-74
2023/04/22 12:34:53;;;;;;;2.00;1.00;;;23.70;44.40;;;;;;4955879;28;20447;-76
2023/04/22 12:37:19;;;;;;;1.70;0.90;;;23.90;44.70;;;;;;4956253;28;20454;-75
2023/04/22 12:39:46;;;;;;;2.17;1.23;;;24.00;47.20;;;;;;4955269;28;20949;-76
2023/04/22 12:42:13;;;;;;;3.20;1.10;;;24.00;44.80;;;;;;4955631;28;20526;-75
2023/04/22 12:44:40;;;;;;;1.90;1.10;;;23.70;44.20;;;;;;4955677;28;20452;-75
2023/04/22 12:47:08;;;;;;;1.80;1.00;;;23.80;45.50;;;;;;4954745;28;20451;-75
2023/04/22 12:49:36;;;;;;;3.63;1.20;;;23.80;44.50;;;;;;4955467;28;20455;-76
2023/04/22 12:52:03;;;;;;;1.87;0.87;;;23.80;45.30;;;;;;4955268;28;20477;-76
2023/04/22 12:54:30;;;;;;;1.80;1.20;;;24.10;44.90;;;;;;4955562;28;20443;-76
2023/04/22 12:56:57;;;;;;;1.70;0.90;;;24.20;44.00;;;;;;4955343;28;20455;-76
2023/04/22 12:59:24;;;;;;;1.93;1.27;;;23.90;43.10;;;;;;4955376;28;20455;-76
2023/04/22 13:01:51;;;;;;;2.00;1.00;;;23.80;43.80;;;;;;4954883;28;20879;-76
2023/04/22 13:04:20;;;;;;;1.70;1.00;;;24.00;44.40;;;;;;4955354;28;20546;-73
2023/04/22 13:06:49;;;;;;;1.80;1.10;;;24.00;42.60;;;;;;4955256;28;20447;-75
2023/04/22 13:09:16;;;;;;;2.67;1.30;;;23.90;43.60;;;;;;4955027;28;20989;-74
2023/04/22 13:11:42;;;;;;;1.80;0.90;;;23.70;42.00;;;;;;4954997;28;20471;-76
2023/04/22 13:14:09;;;;;;;1.77;0.90;;;23.60;43.00;;;;;;4955591;28;20451;-80
2023/04/22 13:16:36;;;;;;;2.10;1.00;;;23.20;42.30;;;;;;4956252;28;20539;-78
2023/04/22 13:19:03;;;;;;;3.93;1.10;;;23.00;43.50;;;;;;4955253;28;20447;-78
2023/04/22 13:21:31;;;;;;;3.00;0.93;;;22.80;45.10;;;;;;4955275;28;20486;-78
2023/04/22 13:23:58;;;;;;;2.20;0.90;;;22.90;45.10;;;;;;4955271;28;20443;-78
2023/04/22 13:26:25;;;;;;;1.90;0.93;;;22.90;44.90;;;;;;4955447;28;20455;-79
2023/04/22 13:28:52;;;;;;;2.47;1.00;;;23.00;45.50;;;;;;4955092;28;20463;-78
2023/04/22 13:31:19;;;;;;;2.90;1.30;;;23.10;45.10;;;;;;4955166;28;20505;-78
2023/04/22 13:33:46;;;;;;;2.13;0.90;;;23.10;44.60;;;;;;4955616;28;20524;-78
2023/04/22 13:36:13;;;;;;;1.93;1.00;;;23.30;45.10;;;;;;4956319;28;20462;-78
2023/04/22 13:38:42;;;;;;;1.70;1.00;;;23.40;44.60;;;;;;4955308;28;20461;-77
2023/04/22 13:41:08;;;;;;;1.90;1.10;;;23.60;45.20;;;;;;4957292;28;20501;-78
2023/04/22 13:43:35;;;;;;;3.40;1.20;;;23.80;44.20;;;;;;4961782;28;20451;-78
2023/04/22 13:46:02;;;;;;;1.70;1.07;;;24.00;44.30;;;;;;4959563;28;20455;-77
2023/04/22 13:48:29;;;;;;;2.30;1.00;;;24.00;44.30;;;;;;4960618;28;20514;-78
2023/04/22 13:50:55;;;;;;;1.90;1.10;;;24.10;43.70;;;;;;4958822;28;20538;-77
2023/04/22 13:53:22;;;;;;;2.30;1.20;;;24.00;44.10;;;;;;4957762;28;20455;-78
2023/04/22 13:55:50;;;;;;;2.57;1.10;;;23.90;44.30;;;;;;4960079;28;20451;-78
2023/04/22 13:58:17;;;;;;;1.90;1.10;;;23.90;44.20;;;;;;4965950;28;20455;-78
2023/04/22 14:00:43;;;;;;;2.37;1.00;;;24.00;43.90;;;;;;4969661;28;20494;-78
2023/04/22 14:03:10;;;;;;;2.00;1.20;;;23.90;43.90;;;;;;4970457;28;20435;-78
2023/04/22 14:05:37;;;;;;;3.83;1.17;;;23.90;44.50;;;;;;4970481;28;20880;-79
2023/04/22 14:08:03;;;;;;;1.80;0.90;;;23.80;44.60;;;;;;4971043;28;20506;-78
2023/04/22 14:10:31;;;;;;;2.60;0.97;;;23.80;44.20;;;;;;4968678;28;20443;-78
2023/04/22 14:12:59;;;;;;;1.77;0.90;;;23.70;44.80;;;;;;4964300;28;20451;-78
2023/04/22 14:15:26;;;;;;;2.13;1.17;;;23.70;45.30;;;;;;4960924;28;20451;-78
2023/04/22 14:17:53;;;;;;;1.60;0.97;;;23.90;45.00;;;;;;4960022;28;20455;-78
2023/04/22 14:20:20;;;;;;;1.80;0.90;;;23.80;44.40;;;;;;4960328;28;20455;-78
2023/04/22 14:22:47;;;;;;;1.80;0.90;;;23.70;45.00;;;;;;4963120;28;20450;-79
2023/04/22 14:25:13;;;;;;;1.90;1.00;;;23.80;45.20;;;;;;4962173;28;20455;-77
2023/04/22 14:27:40;;;;;;;1.87;1.00;;;23.60;44.20;;;;;;4962378;28;20459;-77
2023/04/22 14:30:09;;;;;;;1.70;0.90;;;23.50;44.60;;;;;;4961920;28;20455;-78
2023/04/22 14:32:36;;;;;;;1.70;1.00;;;23.40;44.90;;;;;;4961168;28;20523;-77
2023/04/22 14:35:03;;;;;;;2.20;0.90;;;23.30;45.20;;;;;;4961989;28;20447;-79
2023/04/22 14:37:30;;;;;;;1.67;0.90;;;23.00;45.10;;;;;;4962299;28;20510;-79
2023/04/22 14:39:57;;;;;;;2.80;1.03;;;23.00;46.00;;;;;;4963408;28;20465;-79
2023/04/22 14:42:25;;;;;;;4.90;1.10;;;22.90;46.40;;;;;;4960432;28;20502;-78
2023/04/22 14:44:51;;;;;;;2.83;1.27;;;22.80;46.40;;;;;;4959335;28;20451;-77
2023/04/22 14:47:20;;;;;;;1.70;1.00;;;23.00;47.10;;;;;;4959124;28;20470;-77
2023/04/22 14:49:46;;;;;;;1.80;1.00;;;22.90;46.90;;;;;;4958669;28;20518;-78
2023/04/22 14:52:13;;;;;;;2.00;1.00;;;23.30;46.40;;;;;;4959898;28;20471;-78
2023/04/22 14:54:40;;;;;;;2.50;1.10;;;23.90;45.30;;;;;;4960232;28;20475;-79
2023/04/22 14:57:06;;;;;;;2.00;1.30;;;24.50;44.40;;;;;;4960697;28;20455;-79
2023/04/22 14:59:33;;;;;;;1.90;0.97;;;24.80;44.00;;;;;;4960843;28;20451;-78
2023/04/22 15:02:00;;;;;;;1.80;1.00;;;25.30;43.70;;;;;;4959935;28;20498;-78
2023/04/22 15:04:28;;;;;;;1.60;0.90;;;25.20;42.90;;;;;;4959934;28;20485;-78
2023/04/22 15:06:56;;;;;;;2.30;1.17;;;25.00;44.50;;;;;;4958619;28;20455;-78
2023/04/22 15:09:23;;;;;;;1.70;1.00;;;24.70;44.50;;;;;;4957842;28;20486;-77
2023/04/22 15:11:50;;;;;;;1.80;1.00;;;24.70;45.00;;;;;;4957091;28;20826;-77
2023/04/22 15:14:16;;;;;;;2.43;1.10;;;24.40;45.10;;;;;;4957290;28;20823;-77
2023/04/22 15:16:43;;;;;;;1.90;1.10;;;24.20;45.70;;;;;;4958032;28;20455;-78
2023/04/22 15:19:10;;;;;;;3.27;1.10;;;24.00;45.50;;;;;;4958036;28;20450;-79
2023/04/22 15:21:38;;;;;;;2.10;1.10;;;23.80;45.50;;;;;;4957809;28;20550;-77
2023/04/22 15:24:05;;;;;;;2.40;1.10;;;23.60;46.20;;;;;;4957416;28;20579;-77
2023/04/22 15:26:32;;;;;;;2.90;1.20;;;23.30;46.90;;;;;;4957259;28;20944;-75
2023/04/22 15:29:00;;;;;;;1.60;0.90;;;23.10;47.50;;;;;;4957705;28;20458;-77
2023/04/22 15:31:26;;;;;;;1.80;1.10;;;23.00;48.60;;;;;;4957255;28;20964;-77
2023/04/22 15:33:53;;;;;;;3.57;1.23;;;22.90;48.20;;;;;;4959139;28;20458;-77
2023/04/22 15:36:20;;;;;;;2.13;1.03;;;22.90;47.80;;;;;;4958818;28;20489;-77
2023/04/22 15:38:53;;;;;;;2.63;1.03;;;22.80;47.60;;;;;;4958548;28;20566;-77
2023/04/22 15:41:19;;;;;;;2.27;1.20;;;22.80;47.20;;;;;;4957939;28;20494;-77
2023/04/22 15:43:46;;;;;;;1.90;1.00;;;22.30;48.50;;;;;;4957449;28;20930;-77
2023/04/22 15:46:13;;;;;;;1.70;1.00;;;22.30;49.10;;;;;;4957599;28;20509;-77
2023/04/22 15:48:43;;;;;;;1.70;1.07;;;22.20;48.20;;;;;;4956750;28;20448;-77
2023/04/22 15:51:10;;;;;;;1.67;0.90;;;22.20;48.90;;;;;;4956905;28;20479;-77
2023/04/22 15:53:37;;;;;;;1.70;1.00;;;22.30;49.00;;;;;;4956598;28;20518;-76
2023/04/22 15:56:05;;;;;;;1.63;1.00;;;22.50;49.00;;;;;;4956486;28;20450;-77
2023/04/22 15:58:32;;;;;;;1.80;1.00;;;22.50;48.50;;;;;;4956482;28;20518;-74
2023/04/22 16:00:59;;;;;;;1.70;1.00;;;22.50;49.10;;;;;;4956253;28;20532;-77
2023/04/22 16:03:26;;;;;;;1.77;1.10;;;22.30;48.90;;;;;;4956563;28;20435;-77
2023/04/22 16:05:52;;;;;;;2.30;1.20;;;22.30;49.20;;;;;;4956358;28;20513;-77
2023/04/22 16:08:19;;;;;;;2.20;0.90;;;22.30;49.40;;;;;;4956440;28;20451;-77
2023/04/22 16:10:46;;;;;;;3.47;1.30;;;22.30;49.20;;;;;;4956177;28;20518;-77
2023/04/22 16:13:14;;;;;;;1.97;1.03;;;22.30;48.80;;;;;;4956029;28;20975;-77
2023/04/22 16:15:41;;;;;;;2.00;0.80;;;22.30;49.30;;;;;;4956431;28;20514;-75
2023/04/22 16:18:08;;;;;;;1.83;1.00;;;22.30;49.60;;;;;;4956665;28;20535;-77
2023/04/22 16:20:34;;;;;;;2.03;1.20;;;22.20;49.10;;;;;;4955791;28;20455;-77
2023/04/22 16:23:01;;;;;;;1.90;0.93;;;22.10;49.00;;;;;;4955983;28;20616;-77
2023/04/22 16:25:28;;;;;;;1.67;0.90;;;22.00;50.00;;;;;;4955965;28;20451;-77
2023/04/22 16:27:55;;;;;;;2.00;1.00;;;21.90;49.90;;;;;;4956101;28;20547;-77
2023/04/22 16:30:23;;;;;;;1.60;0.97;;;21.90;49.90;;;;;;4955822;28;20486;-77
2023/04/22 16:32:50;;;;;;;2.43;1.00;;;21.80;50.00;;;;;;4955689;28;20455;-77
2023/04/22 16:35:17;;;;;;;3.50;1.00;;;21.40;50.60;;;;;;4955838;28;20510;-77
2023/04/22 16:37:43;;;;;;;2.10;1.30;;;21.20;50.40;;;;;;4955735;28;20447;-77
2023/04/22 16:40:10;;;;;;;2.20;1.10;;;21.10;50.90;;;;;;4955513;28;20948;-77
2023/04/22 16:42:37;;;;;;;2.50;0.90;;;21.10;51.60;;;;;;4955581;28;20487;-76
2023/04/22 16:45:05;;;;;;;1.70;1.07;;;21.00;51.40;;;;;;4956505;28;20844;-77
2023/04/22 16:47:33;;;;;;;1.80;1.00;;;20.80;51.00;;;;;;4956697;28;20533;-74
2023/04/22 16:50:00;;;;;;;2.10;1.07;;;20.80;51.30;;;;;;4957044;28;20450;-76